Tiempo atmosférico en la estación meteorológica de Baztan, Irurita, Navarra (183 m.)



Fecha
DESCASC
Temp. máxima en grados centígrados (hora)
DESCASC
Temp. mínima en grados centígrados (hora)
DESCASC
Temp. media en grados centígrados
DESCASC
Racha de viento máxima en m/sg (hora)
DESCASC
Velocidad máxima media en intervalos de 10 minutos(hora)
DESCASC
Precipitaciones diarias en mm
DESCASC
Precipitaciones de 00:00 a 06:00 en mm
DESCASC
Precipitaciones de 06:00 a 12:00 en mm
DESCASC
Precipitaciones de 12:00 a 18:00 en mm
DESCASC
Precipitaciones de 18:00 a 24:00 en mm
DESCASC
18-10-2018 20.2 (15:00) 9.3 (02:40) 14.8 6.11 (14:30) 2.5 (14:30) 0 0 0 0 0
17-10-2018 22.1 (15:50) 11 (23:10) 16.6 3.89 (18:00) 1.94 (18:50) 0 0 0 0 0
16-10-2018 21.2 (14:40) 9.1 (01:50) 15.2 4.44 (16:30) 1.94 (15:50) 0.1 0 0.1 0 0
15-10-2018 21.4 (16:40) 10.2 (23:59) 15.8 5 (18:20) 2.22 (18:40) 2.3 1.7 0.6 0 0
14-10-2018 23.9 (11:10) 12.5 (00:00) 18.2 12.5 (13:10) 2.78 (07:20) 12 0 0 11.9 0.1
13-10-2018 28.2 (15:50) 15.6 (00:00) 21.9 11.94 (13:10) 4.17 (13:10) 0 0 0 0 0
12-10-2018 27 (13:30) 14.8 (00:00) 20.9 10.56 (14:50) 4.17 (09:20) 0 0 0 0 0
11-10-2018 25.5 (16:50) 14.8 (23:50) 20.2 14.44 (04:10) 5 (12:00) 0.1 0 0 0 0.1
10-10-2018 22.4 (15:10) 10.8 (00:00) 16.6 9.72 (18:10) 3.89 (18:00) 0.6 0.4 0 0.2 0
09-10-2018 22.3 (16:20) 9.5 (07:40) 15.9 8.33 (16:20) 4.44 (14:10) 0.4 0 0 0.4 0
08-10-2018 18.3 (13:10) 11.7 (07:50) 15 6.11 (16:10) 2.78 (16:10) 2.9 2.9 0 0 0
07-10-2018 14.8 (13:10) 9.5 (06:20) 12.2 5.28 (12:40) 1.94 (11:50) 28.1 0.9 2.4 12.1 12.7
06-10-2018 26.2 (14:20) 7.6 (07:10) 16.9 9.17 (18:30) 3.33 (18:40) 2 0 0 0 2
05-10-2018 28.6 (15:40) 8.3 (04:00) 18.5 7.22 (13:20) 2.5 (10:50) 0 0 0 0 0
04-10-2018 26.5 (17:00) 7.1 (00:00) 16.8 3.33 (18:00) 1.39 (18:20) 0 0 0 0 0
03-10-2018 23.2 (15:50) 3.4 (00:00) 13.3 6.11 (16:40) 3.06 (18:00) 0 0 0 0 0
02-10-2018 19.3 (15:40) 3.9 (00:00) 11.6 7.22 (17:10) 4.44 (16:50) 0 0 0 0 0
01-10-2018 18.1 (13:30) 10.7 (00:00) 14.4 7.22 (12:00) 3.33 (17:20) 0 0 0 0 0
30-09-2018 22.8 (14:50) 9.9 (00:00) 16.3 6.11 (17:30) 3.33 (17:50) 0 0 0 0 0
29-09-2018 24.3 (15:20) 10.7 (00:00) 17.5 5.56 (18:10) 3.06 (14:30) 0 0 0 0 0
28-09-2018 27 (14:40) 12.3 (00:00) 19.7 6.94 (17:10) 3.61 (17:10) 0 0 0 0 0
27-09-2018 30.1 (17:10) 13.7 (00:00) 21.9 9.17 (00:30) 3.33 (00:30) 0 0 0 0 0
26-09-2018 28.8 (16:40) 7.7 (00:00) 18.2 13.33 (15:20) 4.72 (13:40) 0 0 0 0 0
25-09-2018 21.5 (15:30) 7.2 (00:00) 14.3 5 (15:30) 2.22 (17:20) 0 0 0 0 0
24-09-2018 19.4 (00:10) 9.2 (00:00) 14.3 6.39 (16:10) 3.33 (16:10) 2.9 2.6 0.3 0 0
23-09-2018 31.1 (15:20) 13.3 (05:00) 22.2 7.78 (17:50) 4.17 (18:00) 0 0 0 0 0
22-09-2018 31 (15:40) 15.9 (23:59) 23.4 5.56 (17:40) 2.78 (16:50) 0 0 0 0 0
21-09-2018 26.4 (13:50) 17.9 (23:59) 22.1 6.94 (16:10) 3.61 (16:10) 0 0 0 0 0
20-09-2018 33.3 (16:00) 16.1 (08:30) 24.7 3.89 (15:30) 1.67 (15:30) 0 0 0 0 0

Gráficas

Temp. máximas Temp. mínimas Temp. medias Precipitaciones Rachas de viento máximas Velocidades máximas media en intervalos de 10 minutos

Datos horarios

Fecha y hora oficial Temperatura (ºC) Velocidad del viento (km/h) Dirección del viento Racha (km/h) Dirección de racha Precipitación (mm) Presión (hPa) Tendencia (hPa) Humedad (%)
2018-10-19 23:00:00 16.1 0 Calma 5 Nordeste 0 -- -- 89
2018-10-19 22:00:00 16.2 0 Calma 5 Nordeste 0 -- -- 88
2018-10-19 21:00:00 16.5 0 Calma 8 Sudeste 0 -- -- 86
2018-10-19 20:00:00 16.8 0 Calma 10 Este 0 -- -- 83
2018-10-19 19:00:00 18.4 5 Nordeste 15 Nordeste 0 -- -- 72
2018-10-19 18:00:00 19.5 0 Calma 12 Noroeste 0 -- -- 70
2018-10-19 17:00:00 20.3 3 Nordeste 11 Este 0 -- -- 65
2018-10-19 16:00:00 20.9 2 Sudeste 12 Noroeste 0 -- -- 64
2018-10-19 15:00:00 21.2 4 Nordeste 17 Norte 0 -- -- 63
2018-10-19 14:00:00 21.4 2 Sudeste 7 Sudeste 0 -- -- 64
2018-10-19 13:00:00 19.7 0 Calma 0 Calma 0 -- -- 74
2018-10-19 12:00:00 18.2 0 Calma 0 Calma 0 -- -- 80
2018-10-19 11:00:00 16.9 0 Calma 0 Calma 0 -- -- 93
2018-10-19 10:00:00 15.8 0 Calma 0 Calma 0 -- -- 95
2018-10-19 09:00:00 15.4 0 Calma 0 Calma 0 -- -- 96
2018-10-19 08:00:00 15.3 0 Calma 0 Calma 0 -- -- 96
2018-10-19 07:00:00 15.3 0 Calma 5 Sur 0 -- -- 96
2018-10-19 06:00:00 15.2 0 Calma 2 Sudoeste 0 -- -- 96
2018-10-19 05:00:00 15 0 Calma 3 Sur 0 -- -- 95
2018-10-19 04:00:00 15.4 0 Calma 4 Sudoeste 0 -- -- 95
2018-10-19 03:00:00 15.3 0 Calma 3 Sudeste 0 -- -- 95
2018-10-19 02:00:00 15.4 0 Calma 0 Calma 0 -- -- 95
2018-10-19 01:00:00 15.5 0 Calma 4 Sudeste 0 -- -- 95
2018-10-19 00:00:00 15.6 0 Calma 2 Noroeste 0 -- -- 93
2018-10-18 23:00:00 15.7 0 Calma 3 Noroeste 0 -- -- 93
2018-10-18 22:00:00 15.8 0 Calma 4 Sudeste 0 -- -- 92
2018-10-18 21:00:00 16 0 Calma 5 Noroeste 0 -- -- 92
2018-10-18 20:00:00 16.2 0 Calma 4 Noroeste 0 -- -- 89
2018-10-18 19:00:00 16.6 0 Calma 8 Sudeste 0 -- -- 86
2018-10-18 18:00:00 17.2 0 Calma 5 Sur 0 -- -- 79
2018-10-18 17:00:00 17.8 0 Calma 13 Nordeste 0 -- -- 72
2018-10-18 16:00:00 18.7 0 Calma 14 Este 0 -- -- 64
2018-10-18 15:00:00 20 4 Sudeste 22 Nordeste 0 -- -- 60
2018-10-18 14:00:00 18.1 0 Calma 6 Noroeste 0 -- -- 73
2018-10-18 13:00:00 15.2 0 Calma 4 Norte 0 -- -- 87
2018-10-18 12:00:00 13.2 0 Calma 2 Sudeste 0 -- -- 92
2018-10-18 11:00:00 12.3 0 Calma 2 Este 0 -- -- 95
2018-10-18 10:00:00 11.8 0 Calma 3 Nordeste 0 -- -- 97
2018-10-18 09:00:00 11.5 0 Calma 3 Sudeste 0 -- -- 97
2018-10-18 08:00:00 11.1 0 Calma 0 Calma 0 -- -- 97
2018-10-18 07:00:00 10.7 0 Calma 2 Sudoeste 0 -- -- 97
2018-10-18 06:00:00 10.7 0 Calma 5 Sudoeste 0 -- -- 97
2018-10-18 05:00:00 10.8 0 Calma 2 Sur 0 -- -- 97
2018-10-18 04:00:00 10.6 0 Calma -- -- 0 -- -- 97
2018-10-18 03:00:00 9.5 0 Calma -- -- 0 -- -- 95
2018-10-18 02:00:00 9.9 0 Calma 2 Sudoeste 0 -- -- 95
2018-10-18 01:00:00 10.7 0 Calma 0 Calma 0 -- -- 95
2018-10-18 00:00:00 11.3 0 Calma 2 Sudoeste 0 -- -- 95
2018-10-17 23:00:00 11.1 0 Calma 0 Calma 0 -- -- 93
2018-10-17 22:00:00 12.1 0 Calma 4 Oeste 0 -- -- 91
2018-10-17 21:00:00 13.2 3 Sudoeste 5 Sur 0 -- -- 88
2018-10-17 20:00:00 15 2 Sur 10 Nordeste 0 -- -- 82
2018-10-17 19:00:00 18.1 5 Nordeste 14 Nordeste 0 -- -- 64
2018-10-17 18:00:00 19.7 3 Nordeste 14 Nordeste 0 -- -- 59
2018-10-17 17:00:00 21.6 3 Sudeste 11 Sudeste 0 -- -- 52
2018-10-17 16:00:00 21.5 3 Este 13 Sudeste 0 -- -- 52
2018-10-17 15:00:00 21.8 0 Calma 9 Noroeste 0 -- -- 51
2018-10-17 14:00:00 20.4 2 Sur 9 Sur 0 -- -- 54
2018-10-17 13:00:00 19.4 3 Sur 8 Sur 0 -- -- 61
2018-10-17 12:00:00 17 6 Sudoeste 12 Sudoeste 0 -- -- 70
2018-10-17 11:00:00 14.7 0 Calma 0 Calma 0 -- -- 89
2018-10-17 10:00:00 12.9 0 Calma 0 Calma 0 -- -- 96
2018-10-17 09:00:00 12.2 0 Calma 0 Calma 0 -- -- 96
2018-10-17 08:00:00 11.9 0 Calma 0 Calma 0 -- -- 96
2018-10-17 07:00:00 12.8 0 Calma 0 Calma 0 -- -- 95
2018-10-17 06:00:00 13.1 0 Calma 0 Calma 0 -- -- 95
2018-10-17 05:00:00 13.1 0 Calma 0 Calma 0 -- -- 95
2018-10-17 04:00:00 13 0 Calma 0 Calma 0 -- -- 95
2018-10-17 03:00:00 12.9 0 Calma 0 Calma 0 -- -- 95
2018-10-17 02:00:00 12.9 0 Calma 0 Calma 0 -- -- 95
2018-10-17 01:00:00 12.6 0 Calma 0 Calma 0 -- -- 95
2018-10-17 00:00:00 12.3 0 Calma -- -- 0 -- -- 96
2018-10-16 23:00:00 11.8 0 Calma -- -- 0 -- -- 93
2018-10-16 22:00:00 12.8 0 Calma 0 Calma 0 -- -- 91
2018-10-16 21:00:00 14 0 Calma 0 Calma 0 -- -- 91
2018-10-16 20:00:00 14.1 0 Calma 2 Sur 0 -- -- 85
2018-10-16 19:00:00 16.8 0 Calma 8 Sudeste 0 -- -- 74
2018-10-16 18:00:00 17.5 0 Calma 12 Nordeste 0 -- -- 74
2018-10-16 17:00:00 18.7 5 Nordeste 16 Norte 0 -- -- 61
2018-10-16 16:00:00 19.4 5 Norte 13 Norte 0 -- -- 58
2018-10-16 15:00:00 19.7 6 Norte 14 Norte 0 -- -- 56
2018-10-16 14:00:00 19.9 0 Calma 8 Noroeste 0 -- -- 59
2018-10-16 13:00:00 17.9 3 Sudoeste 7 Sur 0 -- -- 65
2018-10-16 12:00:00 14.7 3 Norte 7 Noroeste 0 -- -- 82
2018-10-16 11:00:00 11.6 0 Calma 3 Sudoeste 0 -- -- 95
2018-10-16 10:00:00 10.4 0 Calma 4 Sur 0.1 -- -- 97
2018-10-16 09:00:00 9.9 0 Calma 4 Nordeste 0 -- -- 97
2018-10-16 08:00:00 9.8 0 Calma 3 Sur 0 -- -- 97
2018-10-16 07:00:00 10 0 Calma 3 Sudoeste 0 -- -- 97
2018-10-16 06:00:00 10 0 Calma 4 Nordeste 0 -- -- 97
2018-10-16 05:00:00 10.1 0 Calma 0 Calma 0 -- -- 97
2018-10-16 04:00:00 9.9 0 Calma 0 Calma 0 -- -- 97
2018-10-16 03:00:00 9.5 0 Calma -- -- 0 -- -- 97
2018-10-16 02:00:00 9.3 0 Calma 0 Calma 0 -- -- 96
2018-10-16 01:00:00 9.5 0 Calma 0 Calma 0 -- -- 95
2018-10-16 00:00:00 10.2 0 Calma 2 Noroeste 0 -- -- 95
2018-10-15 23:00:00 10.9 0 Calma 4 Sudoeste 0 -- -- 93
2018-10-15 22:00:00 12.2 0 Calma 5 Sudoeste 0 -- -- 92
2018-10-15 21:00:00 13.8 3 Sur 9 Nordeste 0 -- -- 86
2018-10-15 20:00:00 16.4 6 Nordeste 16 Nordeste 0 -- -- 71
2018-10-15 19:00:00 17.1 7 Nordeste 18 Este 0 -- -- 66
2018-10-15 18:00:00 18.8 5 Nordeste 15 Nordeste 0 -- -- 60
2018-10-15 17:00:00 20.1 4 Nordeste 10 Nordeste 0 -- -- 51
2018-10-15 16:00:00 20.9 3 Sudeste 8 Sur 0 -- -- 49
2018-10-15 15:00:00 19.9 0 Calma 5 Noroeste 0 -- -- 48
2018-10-15 14:00:00 19.1 0 Calma 9 Este 0 -- -- 55
2018-10-15 13:00:00 17.7 0 Calma 5 Norte 0 -- -- 57
2018-10-15 12:00:00 16.9 0 Calma 0 Calma 0 -- -- 70
2018-10-15 11:00:00 14.3 0 Calma 0 Calma 0 -- -- 87
2018-10-15 10:00:00 12.6 0 Calma 0 Calma 0 -- -- 96
2018-10-15 09:00:00 12.3 0 Calma -- -- 0 -- -- 97
2018-10-15 08:00:00 11.8 0 Calma -- -- 0.6 -- -- 96
2018-10-15 07:00:00 11.8 0 Calma 0 Calma 0 -- -- 97
2018-10-15 06:00:00 11.7 0 Calma 2 Noroeste 0 -- -- 96
2018-10-15 05:00:00 11.6 0 Calma 2 Noroeste 0.2 -- -- 97
2018-10-15 04:00:00 11.6 0 Calma 3 Noroeste 1.1 -- -- 97
2018-10-15 03:00:00 11.7 0 Calma 4 Nordeste 0.4 -- -- 96
2018-10-15 02:00:00 12.3 0 Calma 3 Noroeste 0 -- -- 95
2018-10-15 01:00:00 12.4 0 Calma 3 Noroeste 0 -- -- 95
2018-10-15 00:00:00 12.7 0 Calma 3 Nordeste 0 -- -- 92
2018-10-14 23:00:00 12.8 0 Calma 6 Noroeste 0 -- -- 93
2018-10-14 22:00:00 13 0 Calma 3 Noroeste 0 -- -- 95
2018-10-14 21:00:00 13.4 0 Calma 2 Noroeste 0 -- -- 95
2018-10-14 20:00:00 13.4 0 Calma 4 Oeste 0.1 -- -- 93
2018-10-14 19:00:00 13.7 2 Sudeste 10 Sudoeste 0 -- -- 92
2018-10-14 18:00:00 14.2 0 Calma 9 Noroeste 0 -- -- 89
2018-10-14 17:00:00 14.9 0 Calma 9 Noroeste 0 -- -- 91
2018-10-14 16:00:00 14.7 0 Calma 12 Sudoeste 1.6 -- -- 93
2018-10-14 15:00:00 14.5 2 Oeste 22 Sur 3.6 -- -- 92
2018-10-14 14:00:00 16.2 2 Sur 45 Sudoeste 6.7 -- -- 91
2018-10-14 13:00:00 21.8 5 Nordeste 13 Sur 0 -- -- 63
2018-10-14 12:00:00 23.2 4 Sur 21 Sur 0 -- -- 56
2018-10-14 11:00:00 23.7 8 Sudoeste 25 Sudoeste 0 -- -- 54
2018-10-14 10:00:00 22.6 0 Calma 23 Sudeste 0 -- -- 57
2018-10-14 09:00:00 21.9 4 Sudeste 18 Sudoeste 0 -- -- 59
2018-10-14 08:00:00 21.5 0 Calma 24 Sudeste 0 -- -- 59
2018-10-14 07:00:00 20.6 6 Sur 21 Sur 0 -- -- 63
2018-10-14 06:00:00 21.1 3 Sudeste 25 Sudoeste 0 -- -- 60
2018-10-14 05:00:00 20.7 0 Calma 15 Sur 0 -- -- 63
2018-10-14 04:00:00 19.4 0 Calma 15 Norte 0 -- -- 65
2018-10-14 03:00:00 22.3 7 Sudeste 21 Sudeste 0 -- -- 54
2018-10-14 02:00:00 21.9 4 Sudeste 15 Sur 0 -- -- 59
2018-10-14 01:00:00 22.2 4 Sudoeste 20 Sudoeste 0 -- -- 62
2018-10-14 00:00:00 19.6 0 Calma 22 Sur 0 -- -- 71
2018-10-13 23:00:00 21.4 4 Sudoeste 24 Sudoeste 0 -- -- 64
2018-10-13 22:00:00 18.4 2 Sudoeste 11 Sur 0 -- -- 78
2018-10-13 21:00:00 19.5 0 Calma 11 Sur 0 -- -- 73
2018-10-13 20:00:00 20.3 0 Calma 8 Sudoeste 0 -- -- 70
2018-10-13 19:00:00 23.6 2 Este 22 Sur 0 -- -- 56
2018-10-13 18:00:00 25.8 3 Sur 26 Sur 0 -- -- 46
2018-10-13 17:00:00 27 9 Sur 36 Sur 0 -- -- 43
2018-10-13 16:00:00 27 9 Sudoeste 29 Sur 0 -- -- 43
2018-10-13 15:00:00 27.1 8 Sur 31 Sudoeste 0 -- -- 44
2018-10-13 14:00:00 26.3 12 Sudoeste 43 Sudoeste 0 -- -- 47
2018-10-13 13:00:00 25.9 10 Sudoeste 31 Sur 0 -- -- 47
2018-10-13 12:00:00 25.5 3 Sudoeste 23 Sur 0 -- -- 49
2018-10-13 11:00:00 24.2 5 Sudoeste 37 Sudoeste 0 -- -- 53
2018-10-13 10:00:00 22.9 7 Sudeste 29 Sudeste 0 -- -- 56
2018-10-13 09:00:00 21.4 6 Sudeste 22 Este 0 -- -- 63
2018-10-13 08:00:00 18.5 0 Calma 17 Noroeste 0 -- -- 71
2018-10-13 07:00:00 21.5 3 Sur 28 Sudoeste 0 -- -- 58
2018-10-13 06:00:00 20.5 5 Sur 21 Sur 0 -- -- 66
2018-10-13 05:00:00 15.8 0 Calma 11 Sudeste 0 -- -- 88
2018-10-13 04:00:00 16.2 0 Calma 13 Sur 0 -- -- 86
2018-10-13 03:00:00 17.3 0 Calma 15 Nordeste 0 -- -- 82
2018-10-13 02:00:00 16.5 2 Noroeste 13 Este 0 -- -- 85
2018-10-13 01:00:00 16.3 3 Nordeste 14 Sudoeste 0 -- -- 86
2018-10-13 00:00:00 16.3 0 Calma 10 Nordeste 0 -- -- 87
2018-10-12 23:00:00 17 3 Nordeste 9 Nordeste 0 -- -- 84
2018-10-12 22:00:00 16.3 2 Sur 9 Sudoeste 0 -- -- 86
2018-10-12 21:00:00 17.6 2 Sudoeste 7 Sudeste 0 -- -- 78
2018-10-12 20:00:00 20.1 0 Calma 11 Noroeste 0 -- -- 69
2018-10-12 19:00:00 23.4 0 Calma 30 Sudoeste 0 -- -- 52
2018-10-12 18:00:00 25.4 2 Sur 20 Sur 0 -- -- 47
2018-10-12 17:00:00 25.9 5 Sur 29 Sur 0 -- -- 44
2018-10-12 16:00:00 26.1 0 Calma 30 Sudoeste 0 -- -- 44
2018-10-12 15:00:00 26.6 8 Sudoeste 38 Sudoeste 0 -- -- 44
2018-10-12 14:00:00 26.2 15 Sur 37 Sudoeste 0 -- -- 44
2018-10-12 13:00:00 25 6 Sur 33 Sur 0 -- -- 50
2018-10-12 12:00:00 24.8 10 Sur 33 Sur 0 -- -- 50
2018-10-12 11:00:00 22.8 9 Sudeste 28 Este 0 -- -- 55
2018-10-12 10:00:00 22.1 10 Sur 37 Sudeste 0 -- -- 57
2018-10-12 09:00:00 21.4 7 Sur 34 Sur 0 -- -- 59
2018-10-12 08:00:00 21.3 10 Sur 37 Sudeste 0 -- -- 60
2018-10-12 07:00:00 18.7 0 Calma 18 Sudeste 0 -- -- 70
2018-10-12 06:00:00 18.9 3 Norte 26 Sudoeste 0 -- -- 67
2018-10-12 05:00:00 21.6 8 Sur 28 Sudeste 0 -- -- 57
2018-10-12 04:00:00 20.6 3 Sur 18 Sudeste 0 -- -- 62
2018-10-12 03:00:00 21.8 9 Sur 22 Sur 0 -- -- 56
2018-10-12 02:00:00 20.5 8 Sudeste 19 Sudeste 0 -- -- 63
2018-10-12 01:00:00 14.9 2 Sur 15 Este 0 -- -- 95
2018-10-12 00:00:00 15.3 0 Calma 9 Sudoeste 0 -- -- 95
2018-10-11 23:00:00 15.5 0 Calma 6 Norte 0 -- -- 93
2018-10-11 22:00:00 16.9 0 Calma 4 Sur 0 -- -- 92
2018-10-11 21:00:00 17.5 0 Calma 5 Sudoeste 0 -- -- 88
2018-10-11 20:00:00 19.2 2 Sudoeste 8 Sudoeste 0.1 -- -- 81
2018-10-11 19:00:00 22 2 Oeste 36 Sudoeste 0 -- -- 56
2018-10-11 18:00:00 23.4 3 Sudoeste 23 Sur 0 -- -- 51
2018-10-11 17:00:00 24.8 10 Sudoeste 36 Sur 0 -- -- 47
2018-10-11 16:00:00 24.9 15 Sur 32 Sur 0 -- -- 48
2018-10-11 15:00:00 23 8 Sur 31 Sudoeste 0 -- -- 52
2018-10-11 14:00:00 23.2 4 Sur 25 Sudoeste 0 -- -- 50
2018-10-11 13:00:00 24.2 9 Sur 35 Sur 0 -- -- 47
2018-10-11 12:00:00 23.5 18 Sur 40 Sudoeste 0 -- -- 49
2018-10-11 11:00:00 21.1 12 Sur 33 Sudeste 0 -- -- 55
2018-10-11 10:00:00 20.3 12 Sur 30 Sur 0 -- -- 56
2018-10-11 09:00:00 19.7 6 Sur 26 Sudoeste 0 -- -- 59
2018-10-11 08:00:00 19.7 10 Sudoeste 24 Sudoeste 0 -- -- 57
2018-10-11 07:00:00 18.5 6 Sur 27 Sudoeste 0 -- -- 60
2018-10-11 06:00:00 19.6 6 Sudoeste 34 Sudoeste 0 -- -- 55
2018-10-11 05:00:00 20.2 12 Sudoeste 52 Sudoeste 0 -- -- 53
2018-10-11 04:00:00 20.1 15 Sudoeste 46 Sur 0 -- -- 54
2018-10-11 03:00:00 15 2 Sudeste 29 Sudoeste 0 -- -- 75
2018-10-11 02:00:00 19.3 12 Sur 28 Sudoeste 0 -- -- 56
2018-10-11 01:00:00 18.5 10 Sudeste 27 Sudeste 0 -- -- 62
2018-10-11 00:00:00 17.8 5 Sudeste 18 Sudoeste 0 -- -- 65
2018-10-10 23:00:00 16.4 3 Sudeste 13 Sudoeste 0 -- -- 75
2018-10-10 22:00:00 13.4 0 Calma 8 Nordeste 0 -- -- 89
2018-10-10 21:00:00 14.5 0 Calma 9 Norte 0 -- -- 82
2018-10-10 20:00:00 16.2 0 Calma 13 Sudeste 0 -- -- 74
2018-10-10 19:00:00 19.5 6 Sur 35 Sur 0 -- -- 53
2018-10-10 18:00:00 20.4 14 Sur 29 Sur 0 -- -- 49
2018-10-10 17:00:00 20.9 9 Sur 29 Sudeste 0 -- -- 49
2018-10-10 16:00:00 21.6 12 Sur 29 Sudeste 0 -- -- 49
2018-10-10 15:00:00 22.3 5 Sur 19 Sudoeste 0 -- -- 50
2018-10-10 14:00:00 21 6 Sudeste 28 Sudoeste 0 -- -- 53
2018-10-10 13:00:00 20.6 12 Sur 29 Sudoeste 0.2 -- -- 50
2018-10-10 12:00:00 20.4 3 Sudoeste 23 Sudoeste 0 -- -- 55
2018-10-10 11:00:00 15.6 0 Calma 10 Sur 0 -- -- 89
2018-10-10 10:00:00 13.2 0 Calma 6 Sudeste 0 -- -- 95
2018-10-10 09:00:00 11.5 0 Calma 7 Sur 0 -- -- 97
2018-10-10 08:00:00 11 0 Calma 5 Sur 0 -- -- 97
2018-10-10 07:00:00 11 0 Calma 6 Sur 0 -- -- 96
2018-10-10 06:00:00 11.7 0 Calma 5 Noroeste 0.1 -- -- 96
2018-10-10 05:00:00 11.7 0 Calma 5 Este 0 -- -- 96
2018-10-10 04:00:00 11.7 3 Noroeste 7 Norte 0.1 -- -- 96
2018-10-10 03:00:00 11.8 0 Calma 5 Este 0.2 -- -- 95
2018-10-10 02:00:00 11.5 0 Calma 4 Sudoeste 0 -- -- 95
2018-10-10 01:00:00 11.2 0 Calma 3 Nordeste 0 -- -- 95
2018-10-10 00:00:00 11.3 0 Calma 4 Sudoeste 0 -- -- 93
2018-10-09 23:00:00 11.3 0 Calma 7 Noroeste 0 -- -- 92
2018-10-09 22:00:00 12.1 0 Calma 7 Noroeste 0 -- -- 89
2018-10-09 21:00:00 13.5 3 Sudoeste 15 Sudeste 0 -- -- 78
2018-10-09 20:00:00 17.2 3 Este 16 Este 0 -- -- 57
2018-10-09 19:00:00 18.5 5 Sur 22 Sur 0 -- -- 56
2018-10-09 18:00:00 17.4 2 Norte 9 Sudeste 0 -- -- 78
2018-10-09 17:00:00 18.5 6 Sudeste 30 Sudoeste 0.4 -- -- 55
2018-10-09 16:00:00 21.5 10 Sur 24 Sur 0 -- -- 41
2018-10-09 15:00:00 21.1 12 Sur 28 Sudoeste 0 -- -- 44
2018-10-09 14:00:00 20.6 11 Sur 30 Sur 0 -- -- 44
2018-10-09 13:00:00 17.2 2 Nordeste 7 Sur 0 -- -- 58
2018-10-09 12:00:00 14.4 0 Calma 6 Nordeste 0 -- -- 77
2018-10-09 11:00:00 11.6 0 Calma 6 Nordeste 0 -- -- 92
2018-10-09 10:00:00 11 0 Calma 4 Este 0 -- -- 96
2018-10-09 09:00:00 10.2 0 Calma 6 Sudoeste 0 -- -- 96
2018-10-09 08:00:00 10 0 Calma 6 Sur 0 -- -- 96
2018-10-09 07:00:00 10.6 0 Calma 3 Norte 0 -- -- 96
2018-10-09 06:00:00 10.8 0 Calma 5 Sudeste 0 -- -- 95
2018-10-09 05:00:00 11.3 0 Calma 3 Este 0 -- -- 95
2018-10-09 04:00:00 11.7 0 Calma 4 Sudeste 0 -- -- 94
2018-10-09 03:00:00 12.7 0 Calma 3 Noroeste 0 -- -- 93
2018-10-09 02:00:00 12.8 0 Calma 2 Noroeste 0 -- -- 93
2018-10-09 01:00:00 12.9 0 Calma 2 Noroeste 0 -- -- 93
2018-10-09 00:00:00 12.9 0 Calma 4 Noroeste 0 -- -- 92
2018-10-08 23:00:00 12.9 0 Calma 4 Noroeste 0 -- -- 92
2018-10-08 22:00:00 13 0 Calma 4 Noroeste 0 -- -- 89
2018-10-08 21:00:00 13 0 Calma 4 Nordeste 0 -- -- 89
2018-10-08 20:00:00 13.9 0 Calma 6 Sudeste 0 -- -- 82
2018-10-08 19:00:00 14.9 0 Calma 8 Noroeste 0 -- -- 75
2018-10-08 18:00:00 15.6 0 Calma 16 Nordeste 0 -- -- 72
2018-10-08 17:00:00 16.2 6 Norte 22 Norte 0 -- -- 64
2018-10-08 16:00:00 17.1 6 Norte 21 Noroeste 0 -- -- 61
2018-10-08 15:00:00 16.7 9 Norte 18 Norte 0 -- -- 61
2018-10-08 14:00:00 17.3 2 Noroeste 12 Sudeste 0 -- -- 61
2018-10-08 13:00:00 17.5 4 Nordeste 13 Nordeste 0 -- -- 63
2018-10-08 12:00:00 15.1 2 Norte 8 Norte 0 -- -- 73
2018-10-08 11:00:00 14 0 Calma 5 Noroeste 0 -- -- 87
2018-10-08 10:00:00 12.6 0 Calma 0 Calma 0 -- -- 96
2018-10-08 09:00:00 12 0 Calma -- -- 0 -- -- 97
2018-10-08 08:00:00 11.8 0 Calma 0 Calma 0 -- -- 97
2018-10-08 07:00:00 11.9 0 Calma 6 Nordeste 0 -- -- 97
2018-10-08 06:00:00 12.2 0 Calma 3 Noroeste 0 -- -- 97
2018-10-08 05:00:00 12.5 0 Calma 6 Sudoeste 0 -- -- 97
2018-10-08 04:00:00 12.6 0 Calma 5 Sur 0.5 -- -- 97
2018-10-08 03:00:00 12.5 0 Calma 10 Sur 0.1 -- -- 97
2018-10-08 02:00:00 12.6 0 Calma 4 Sur 0.6 -- -- 97
2018-10-08 01:00:00 12.6 3 Sur 9 Sudoeste 1.7 -- -- 97
2018-10-08 00:00:00 12.6 3 Sudoeste 8 Sur 3.3 -- -- 97
2018-10-07 23:00:00 12.7 0 Calma 14 Sudoeste 2.7 -- -- 96
2018-10-07 22:00:00 12.5 3 Sudoeste 8 Sudoeste 0.9 -- -- 97
2018-10-07 21:00:00 12.2 0 Calma 7 Sudoeste 0.8 -- -- 96
2018-10-07 20:00:00 12.1 0 Calma 10 Sur 3.6 -- -- 95
2018-10-07 19:00:00 12.1 4 Sudoeste 11 Sur 1.4 -- -- 94
2018-10-07 18:00:00 12.2 0 Calma 13 Sudoeste 1.1 -- -- 92
2018-10-07 17:00:00 12.5 4 Sur 9 Sur 2.5 -- -- 93
2018-10-07 16:00:00 12.6 0 Calma 6 Sur 4.5 -- -- 92
2018-10-07 15:00:00 12.4 2 Sudoeste 10 Sudoeste 3.9 -- -- 88
2018-10-07 14:00:00 13.7 6 Noroeste 17 Noroeste 0.1 -- -- 71
2018-10-07 13:00:00 14 5 Oeste 19 Noroeste 0 -- -- 66
2018-10-07 12:00:00 13.3 3 Sudoeste 14 Oeste 0.3 -- -- 80
2018-10-07 11:00:00 12.8 6 Sudoeste 14 Sur 0 -- -- 80
2018-10-07 10:00:00 11.4 0 Calma 5 Sur 0 -- -- 97
2018-10-07 09:00:00 10 0 Calma 3 Noroeste 0.1 -- -- 97
2018-10-07 08:00:00 10 2 Oeste 8 Sudoeste 1.5 -- -- 97
2018-10-07 07:00:00 10.1 2 Sudoeste 9 Noroeste 0.5 -- -- 97
2018-10-07 06:00:00 9.9 0 Calma 4 Norte 0.1 -- -- 96
2018-10-07 05:00:00 10.6 0 Calma 4 Noroeste 0.2 -- -- 96
2018-10-07 04:00:00 10.8 0 Calma 16 Noroeste 0.3 -- -- 95
2018-10-07 03:00:00 10.5 2 Noroeste 8 Sudoeste 0 -- -- 95
2018-10-07 02:00:00 11.3 3 Sudoeste 8 Sudoeste 0.3 -- -- 94
2018-10-07 01:00:00 11.5 0 Calma 8 Noroeste 0 -- -- 92
2018-10-07 00:00:00 11.9 6 Sur 15 Sudoeste 0.2 -- -- 90
2018-10-06 23:00:00 12.1 2 Sur 6 Sur 0.4 -- -- 95
2018-10-06 22:00:00 12.2 2 Sudoeste 8 Oeste 0.9 -- -- 94
2018-10-06 21:00:00 12.8 0 Calma 9 Sudoeste 0.4 -- -- 89
2018-10-06 20:00:00 13.6 0 Calma 16 Noroeste 0.1 -- -- 76
2018-10-06 19:00:00 14.6 2 Oeste 33 Noroeste 0 -- -- 73
2018-10-06 18:00:00 17.3 3 Norte 25 Norte 0 -- -- 60
2018-10-06 17:00:00 17.8 2 Oeste 19 Noroeste 0 -- -- 57
2018-10-06 16:00:00 19.4 0 Calma 25 Sudeste 0 -- -- 55
2018-10-06 15:00:00 22.8 8 Sudeste 25 Sudeste 0 -- -- 53
2018-10-06 14:00:00 25.1 4 Noroeste 22 Noroeste 0 -- -- 44
2018-10-06 13:00:00 24.1 8 Noroeste 20 Noroeste 0 -- -- 45
2018-10-06 12:00:00 22.7 10 Noroeste 23 Noroeste 0 -- -- 50
2018-10-06 11:00:00 20.2 8 Noroeste 14 Noroeste 0 -- -- 59
2018-10-06 10:00:00 13.3 0 Calma 5 Sudeste 0 -- -- 96
2018-10-06 09:00:00 9.5 0 Calma 5 Sur 0 -- -- 97
2018-10-06 08:00:00 8.4 0 Calma 8 Sudeste 0 -- -- 97
2018-10-06 07:00:00 7.8 0 Calma 3 Sudeste 0 -- -- 96
2018-10-06 06:00:00 8.2 0 Calma 5 Sudeste 0 -- -- 96
2018-10-06 05:00:00 8.5 0 Calma 4 Sur 0 -- -- 96
2018-10-06 04:00:00 8.8 0 Calma 6 Sudeste 0 -- -- 96
2018-10-06 03:00:00 9 0 Calma 7 Sudoeste 0 -- -- 95
2018-10-06 02:00:00 9.4 0 Calma 8 Sur 0 -- -- 95
2018-10-06 01:00:00 9.7 0 Calma 7 Sur 0 -- -- 95
2018-10-06 00:00:00 10.6 0 Calma 3 Noroeste 0 -- -- 92
2018-10-05 23:00:00 11.5 0 Calma 4 Sur 0 -- -- 90
2018-10-05 22:00:00 12.9 0 Calma 4 Sur 0 -- -- 85
2018-10-05 21:00:00 14.6 0 Calma 4 Sudoeste 0 -- -- 78
2018-10-05 20:00:00 17.6 0 Calma 6 Sudoeste 0 -- -- 65
2018-10-05 19:00:00 21.5 3 Sudoeste 8 Sudoeste 0 -- -- 50
2018-10-05 18:00:00 25.5 2 Noroeste 10 Sudoeste 0 -- -- 39
2018-10-05 17:00:00 27.9 2 Oeste 14 Sur 0 -- -- 31
2018-10-05 16:00:00 28 3 Oeste 14 Sudoeste 0 -- -- 31
2018-10-05 15:00:00 28.2 2 Este 14 Sur 0 -- -- 32
2018-10-05 14:00:00 27 4 Nordeste 26 Sudeste 0 -- -- 32
2018-10-05 13:00:00 26 2 Noroeste 24 Noroeste 0 -- -- 35
2018-10-05 12:00:00 23.8 5 Noroeste 17 Norte 0 -- -- 39
2018-10-05 11:00:00 21.1 2 Noroeste 15 Oeste 0 -- -- 46
2018-10-05 10:00:00 16.4 0 Calma 10 Sudoeste 0 -- -- 80
2018-10-05 09:00:00 10.8 2 Norte 10 Noroeste 0 -- -- 96
2018-10-05 08:00:00 9.4 0 Calma 10 Sur 0 -- -- 97
2018-10-05 07:00:00 8.8 0 Calma 11 Sudeste 0 -- -- 97
2018-10-05 06:00:00 8.8 0 Calma 12 Sur 0 -- -- 97
2018-10-05 05:00:00 8.7 0 Calma 10 Sudoeste 0 -- -- 97
2018-10-05 04:00:00 8.6 0 Calma 8 Sur 0 -- -- 97
2018-10-05 03:00:00 8.5 0 Calma 6 Sudoeste 0 -- -- 97
2018-10-05 02:00:00 8.9 0 Calma 7 Nordeste 0 -- -- 96
2018-10-05 01:00:00 9.4 0 Calma 5 Sudoeste 0 -- -- 95
2018-10-05 00:00:00 10.1 0 Calma 5 Sudoeste 0 -- -- 95
2018-10-04 23:00:00 11.3 0 Calma 5 Sur 0 -- -- 93
2018-10-04 22:00:00 12.5 0 Calma 3 Oeste 0 -- -- 90
2018-10-04 21:00:00 14.3 0 Calma 4 Sudoeste 0 -- -- 85
2018-10-04 20:00:00 17.5 2 Sudoeste 10 Sudeste 0 -- -- 73
2018-10-04 19:00:00 21.1 3 Sudeste 12 Sudeste 0 -- -- 58
2018-10-04 18:00:00 24.4 2 Sudeste 12 Nordeste 0 -- -- 47
2018-10-04 17:00:00 26.1 0 Calma 5 Sudoeste 0 -- -- 42
2018-10-04 16:00:00 25.9 3 Sur 6 Sudoeste 0 -- -- 42
2018-10-04 15:00:00 23.6 2 Sudoeste 6 Sudoeste 0 -- -- 47
2018-10-04 14:00:00 19.4 0 Calma 7 Nordeste 0 -- -- 58
2018-10-04 13:00:00 15.3 0 Calma 8 Sur 0 -- -- 77
2018-10-04 12:00:00 12.5 0 Calma 5 Noroeste 0 -- -- 91
2018-10-04 11:00:00 11.9 0 Calma 6 Nordeste 0 -- -- 95
2018-10-04 10:00:00 10.9 0 Calma 4 Nordeste 0 -- -- 98
2018-10-04 09:00:00 10.4 0 Calma 2 Sudoeste 0 -- -- 98
2018-10-04 08:00:00 10 0 Calma 2 Sudoeste 0 -- -- 98
2018-10-04 07:00:00 9.7 0 Calma 3 Sudoeste 0 -- -- 98
2018-10-04 06:00:00 9.2 0 Calma -- -- 0 -- -- 98
2018-10-04 05:00:00 8.3 0 Calma -- -- 0 -- -- 97
2018-10-04 04:00:00 7.5 0 Calma 3 Noroeste 0 -- -- 96
2018-10-04 03:00:00 8.1 0 Calma 5 Sudoeste 0 -- -- 95
2018-10-04 02:00:00 9 0 Calma 3 Sudoeste 0 -- -- 95
2018-10-04 01:00:00 9.9 0 Calma 5 Sur 0 -- -- 95
2018-10-04 00:00:00 10.3 0 Calma 3 Sudoeste 0 -- -- 94
2018-10-03 23:00:00 9.9 0 Calma 3 Sudoeste 0 -- -- 92
2018-10-03 22:00:00 10.8 0 Calma 0 Calma 0 -- -- 89
2018-10-03 21:00:00 12.5 0 Calma 4 Sudoeste 0 -- -- 83
2018-10-03 20:00:00 14.5 3 Sudoeste 8 Nordeste 0 -- -- 73
2018-10-03 19:00:00 18 4 Norte 19 Noroeste 0 -- -- 54
2018-10-03 18:00:00 19.9 11 Norte 18 Norte 0 -- -- 46
2018-10-03 17:00:00 21.4 11 Norte 22 Noroeste 0 -- -- 41
2018-10-03 16:00:00 22.6 8 Nordeste 18 Este 0 -- -- 38
2018-10-03 15:00:00 22.4 8 Nordeste 17 Nordeste 0 -- -- 38
2018-10-03 14:00:00 21.8 5 Sur 10 Sur 0 -- -- 35
2018-10-03 13:00:00 18.5 3 Sudoeste 8 Sudeste 0 -- -- 45
2018-10-03 12:00:00 14.1 2 Este 6 Nordeste 0 -- -- 64
2018-10-03 11:00:00 9.8 0 Calma 4 Noroeste 0 -- -- 86
2018-10-03 10:00:00 6.3 0 Calma 3 Sur 0 -- -- 97
2018-10-03 09:00:00 4 0 Calma 0 Calma 0 -- -- 97
2018-10-03 08:00:00 3.5 0 Calma 0 Calma 0 -- -- 97
2018-10-03 07:00:00 3.8 0 Calma 2 Noroeste 0 -- -- 97
2018-10-03 06:00:00 4 0 Calma -- -- 0 -- -- 96
2018-10-03 05:00:00 4.4 0 Calma 0 Calma 0 -- -- 96
2018-10-03 04:00:00 4.6 0 Calma 0 Calma 0 -- -- 95
2018-10-03 03:00:00 5 0 Calma 0 Calma 0 -- -- 95
2018-10-03 02:00:00 5.4 0 Calma 2 Sudoeste 0 -- -- 94
2018-10-03 01:00:00 6.1 0 Calma 2 Sudoeste 0 -- -- 93
2018-10-03 00:00:00 6.6 0 Calma 0 Calma 0 -- -- 92
2018-10-02 23:00:00 7.5 0 Calma 0 Calma 0 -- -- 89
2018-10-02 22:00:00 8.5 0 Calma 3 Sudoeste 0 -- -- 85
2018-10-02 21:00:00 9.9 2 Sur 6 Sudoeste 0 -- -- 76
2018-10-02 20:00:00 12.3 0 Calma 13 Norte 0 -- -- 61
2018-10-02 19:00:00 14.8 3 Nordeste 25 Norte 0 -- -- 48
2018-10-02 18:00:00 16.3 10 Norte 26 Norte 0 -- -- 44
2018-10-02 17:00:00 17.4 14 Norte 25 Norte 0 -- -- 40
2018-10-02 16:00:00 18.4 13 Norte 23 Norte 0 -- -- 35
2018-10-02 15:00:00 18.4 9 Norte 22 Noroeste 0 -- -- 36
2018-10-02 14:00:00 18.4 2 Norte 18 Norte 0 -- -- 36
2018-10-02 13:00:00 16.9 8 Nordeste 22 Nordeste 0 -- -- 38
2018-10-02 12:00:00 14.4 0 Calma 6 Este 0 -- -- 58
2018-10-02 11:00:00 9.9 2 Sudeste 4 Sudeste 0 -- -- 82
2018-10-02 10:00:00 6.6 0 Calma 3 Sudeste 0 -- -- 97
2018-10-02 09:00:00 4.5 0 Calma 0 Calma 0 -- -- 96
2018-10-02 08:00:00 4 0 Calma 0 Calma 0 -- -- 96
2018-10-02 07:00:00 4.5 0 Calma 3 Sur 0 -- -- 95
2018-10-02 06:00:00 5 0 Calma 0 Calma 0 -- -- 95
2018-10-02 05:00:00 5.8 0 Calma 2 Nordeste 0 -- -- 93
2018-10-02 04:00:00 6.8 0 Calma 4 Nordeste 0 -- -- 92
2018-10-02 03:00:00 8.8 0 Calma 3 Noroeste 0 -- -- 90
2018-10-02 02:00:00 9.7 0 Calma 3 Sur 0 -- -- 87
2018-10-02 01:00:00 10.4 0 Calma 6 Noroeste 0 -- -- 85
2018-10-02 00:00:00 10.8 0 Calma 4 Noroeste 0 -- -- 82
2018-10-01 23:00:00 11.2 0 Calma 8 Nordeste 0 -- -- 75
2018-10-01 22:00:00 12.4 0 Calma 8 Este 0 -- -- 66
2018-10-01 21:00:00 12.5 0 Calma 8 Nordeste 0 -- -- 68
2018-10-01 20:00:00 13.3 4 Norte 24 Este 0 -- -- 61
2018-10-01 19:00:00 14 6 Nordeste 18 Norte 0 -- -- 56
2018-10-01 18:00:00 14.9 7 Norte 25 Norte 0 -- -- 55
2018-10-01 17:00:00 16.2 5 Noroeste 22 Noroeste 0 -- -- 49
2018-10-01 16:00:00 16.6 6 Norte 23 Norte 0 -- -- 49
2018-10-01 15:00:00 15.7 8 Norte 19 Nordeste 0 -- -- 54
2018-10-01 14:00:00 15.8 8 Nordeste 24 Noroeste 0 -- -- 50
2018-10-01 13:00:00 16.4 5 Nordeste 20 Noroeste 0 -- -- 50
2018-10-01 12:00:00 15.4 9 Norte 26 Nordeste 0 -- -- 54
2018-10-01 11:00:00 15.7 8 Norte 20 Norte 0 -- -- 56
2018-10-01 10:00:00 13.5 0 Calma 6 Sudoeste 0 -- -- 88
2018-10-01 09:00:00 12.3 0 Calma 0 Calma 0 -- -- 93
2018-10-01 08:00:00 11.5 0 Calma 4 Noroeste 0 -- -- 92
2018-10-01 07:00:00 12.3 0 Calma 8 Norte 0 -- -- 92
2018-10-01 06:00:00 12 2 Norte 14 Norte 0 -- -- 96
2018-10-01 05:00:00 11.6 0 Calma 5 Sur 0 -- -- 96
2018-10-01 04:00:00 11.7 2 Sur 8 Sur 0 -- -- 96
2018-10-01 03:00:00 11 0 Calma 3 Sudoeste 0 -- -- 95
2018-10-01 02:00:00 11.5 0 Calma 4 Noroeste 0 -- -- 94
2018-10-01 01:00:00 12.4 0 Calma 4 Sudoeste 0 -- -- 93
2018-10-01 00:00:00 12.9 0 Calma 6 Noroeste 0 -- -- 92
2018-09-30 23:00:00 12.8 0 Calma 4 Noroeste 0 -- -- 91
2018-09-30 22:00:00 13 0 Calma 3 Sudoeste 0 -- -- 89
2018-09-30 21:00:00 13.1 0 Calma 4 Sudoeste 0 -- -- 85
2018-09-30 20:00:00 15 0 Calma 13 Norte 0 -- -- 75
2018-09-30 19:00:00 18.1 6 Norte 17 Norte 0 -- -- 56
2018-09-30 18:00:00 19.7 9 Norte 22 Norte 0 -- -- 52
2018-09-30 17:00:00 20.2 10 Norte 22 Norte 0 -- -- 44
2018-09-30 16:00:00 21.4 10 Norte 22 Norte 0 -- -- 44
2018-09-30 15:00:00 22.3 3 Sur 13 Norte 0 -- -- 41
2018-09-30 14:00:00 21.5 0 Calma 8 Sur 0 -- -- 47
2018-09-30 13:00:00 17.8 0 Calma 8 Norte 0 -- -- 63
2018-09-30 12:00:00 14.8 3 Nordeste 13 Nordeste 0 -- -- 78
2018-09-30 11:00:00 13.2 0 Calma 6 Sur 0 -- -- 86
2018-09-30 10:00:00 12.4 0 Calma 5 Oeste 0 -- -- 88
2018-09-30 09:00:00 11.5 2 Sudoeste 7 Sudoeste 0 -- -- 89
2018-09-30 08:00:00 11.5 2 Sudoeste 7 Sudoeste 0 -- -- 89
2018-09-30 07:00:00 11.8 4 Sudoeste 8 Sudoeste 0 -- -- 91
2018-09-30 06:00:00 12 0 Calma 3 Oeste 0 -- -- 93
2018-09-30 05:00:00 11.7 0 Calma 4 Sudoeste 0 -- -- 93
2018-09-30 04:00:00 11.6 0 Calma 4 Sudoeste 0 -- -- 96
2018-09-30 03:00:00 11.3 0 Calma 0 Calma 0 -- -- 96
2018-09-30 02:00:00 10.8 0 Calma -- -- 0 -- -- 96
2018-09-30 01:00:00 10.1 0 Calma -- -- 0 -- -- 94
2018-09-30 00:00:00 10.7 0 Calma 0 Calma 0 -- -- 93
2018-09-29 23:00:00 11.6 0 Calma 3 Sudoeste 0 -- -- 92
2018-09-29 22:00:00 12.7 0 Calma 4 Sur 0 -- -- 89
2018-09-29 21:00:00 14.6 0 Calma 6 Nordeste 0 -- -- 83
2018-09-29 20:00:00 17 0 Calma 12 Este 0 -- -- 72
2018-09-29 19:00:00 19.4 3 Este 20 Norte 0 -- -- 63
2018-09-29 18:00:00 21.6 8 Norte 18 Noroeste 0 -- -- 53
2018-09-29 17:00:00 22.2 2 Norte 15 Norte 0 -- -- 52
2018-09-29 16:00:00 22.2 9 Norte 17 Norte 0 -- -- 50
2018-09-29 15:00:00 22.3 8 Norte 18 Norte 0 -- -- 49
2018-09-29 14:00:00 22.7 8 Norte 15 Noroeste 0 -- -- 51
2018-09-29 13:00:00 22.8 2 Sur 8 Sudoeste 0 -- -- 56
2018-09-29 12:00:00 21.8 0 Calma 9 Sudoeste 0 -- -- 63
2018-09-29 11:00:00 18.4 0 Calma 4 Norte 0 -- -- 80
2018-09-29 10:00:00 16.9 0 Calma 3 Noroeste 0 -- -- 88
2018-09-29 09:00:00 15.9 0 Calma 3 Noroeste 0 -- -- 93
2018-09-29 08:00:00 15.5 0 Calma 3 Sudoeste 0 -- -- 93
2018-09-29 07:00:00 15.3 0 Calma 5 Noroeste 0 -- -- 93
2018-09-29 06:00:00 15.2 0 Calma 2 Sur 0 -- -- 94
2018-09-29 05:00:00 14.9 0 Calma 4 Noroeste 0 -- -- 95
2018-09-29 04:00:00 14.6 0 Calma 0 Calma 0 -- -- 95
2018-09-29 03:00:00 14.4 0 Calma 0 Calma 0 -- -- 95
2018-09-29 02:00:00 13.8 0 Calma 5 Noroeste 0 -- -- 95
2018-09-29 01:00:00 13.9 0 Calma 2 Sur 0 -- -- 94
2018-09-29 00:00:00 13.6 0 Calma 2 Noroeste 0 -- -- 92
2018-09-28 23:00:00 14.6 0 Calma 3 Sur 0 -- -- 91
2018-09-28 22:00:00 15.8 0 Calma 4 Noroeste 0 -- -- 87
2018-09-28 21:00:00 17.3 0 Calma 11 Sudeste 0 -- -- 82
2018-09-28 20:00:00 19.5 2 Sudeste 13 Norte 0 -- -- 71
2018-09-28 19:00:00 21.8 5 Norte 13 Norte 0 -- -- 51
2018-09-28 18:00:00 23.3 4 Noroeste 25 Norte 0 -- -- 48
2018-09-28 17:00:00 24.9 10 Norte 22 Noroeste 0 -- -- 45
2018-09-28 16:00:00 26.5 6 Nordeste 20 Norte 0 -- -- 43
2018-09-28 15:00:00 26.7 6 Nordeste 15 Noroeste 0 -- -- 46
2018-09-28 14:00:00 26.5 0 Calma -- -- -- -- -- 47
2018-09-28 13:00:00 23.6 2 Norte 7 Norte 0 -- -- 56
2018-09-28 12:00:00 19.4 0 Calma 5 Noroeste 0 -- -- 75
2018-09-28 11:00:00 14.5 0 Calma 4 Norte 0 -- -- 97
2018-09-28 10:00:00 13.6 0 Calma 3 Nordeste 0 -- -- 97
2018-09-28 09:00:00 13.4 0 Calma 4 Sudeste 0 -- -- 97
2018-09-28 08:00:00 13.3 0 Calma 3 Nordeste 0 -- -- 97
2018-09-28 07:00:00 13.4 0 Calma 2 Nordeste 0 -- -- 97
2018-09-28 06:00:00 13.1 0 Calma 2 Sur 0 -- -- 97
2018-09-28 05:00:00 12.5 0 Calma 0 Calma 0 -- -- 96
2018-09-28 04:00:00 12.4 0 Calma 0 Calma 0 -- -- 95
2018-09-28 03:00:00 12.9 0 Calma -- -- 0 -- -- 95
2018-09-28 02:00:00 13.5 0 Calma 2 Sur 0 -- -- 95
2018-09-28 01:00:00 14.1 0 Calma 0 Calma 0 -- -- 93
2018-09-28 00:00:00 14.9 0 Calma 0 Calma 0 -- -- 92
2018-09-27 23:00:00 16.2 0 Calma 2 Sur 0 -- -- 89
2018-09-27 22:00:00 17.5 0 Calma 3 Sudoeste 0 -- -- 85
2018-09-27 21:00:00 19.8 0 Calma 5 Sudoeste 0 -- -- 75
2018-09-27 20:00:00 23.1 0 Calma 19 Nordeste 0 -- -- 60
2018-09-27 19:00:00 26.6 6 Nordeste 12 Este 0 -- -- 51
2018-09-27 18:00:00 27.8 0 Calma 5 Sudoeste 0 -- -- 47
2018-09-27 17:00:00 29.9 0 Calma 11 Noroeste 0 -- -- 39
2018-09-27 16:00:00 29.6 4 Noroeste 14 Noroeste 0 -- -- 41
2018-09-27 15:00:00 28.7 8 Noroeste 20 Noroeste 0 -- -- 41
2018-09-27 14:00:00 28.2 6 Noroeste 17 Noroeste 0 -- -- 43
2018-09-27 13:00:00 27 7 Noroeste 18 Noroeste 0 -- -- 45
2018-09-27 12:00:00 25.1 6 Noroeste 13 Noroeste 0 -- -- 48
2018-09-27 11:00:00 22.6 7 Noroeste 13 Noroeste 0 -- -- 57
2018-09-27 10:00:00 18 0 Calma 5 Sudoeste 0 -- -- 83
2018-09-27 09:00:00 14.7 0 Calma 6 Sur 0 -- -- 92
2018-09-27 08:00:00 14.1 3 Noroeste 8 Noroeste 0 -- -- 92
2018-09-27 07:00:00 15 2 Noroeste 13 Noroeste 0 -- -- 88
2018-09-27 06:00:00 14.9 3 Noroeste 8 Noroeste 0 -- -- 86
2018-09-27 05:00:00 15.8 0 Calma 13 Este 0 -- -- 80
2018-09-27 04:00:00 17.2 3 Noroeste 17 Sur 0 -- -- 72
2018-09-27 03:00:00 19.1 0 Calma 26 Sudeste 0 -- -- 61
2018-09-27 02:00:00 20.4 0 Calma 25 Noroeste 0 -- -- 56
2018-09-27 01:00:00 20.5 3 Noroeste 33 Sudoeste 0 -- -- 54
2018-09-27 00:00:00 22 6 Sur 27 Sudeste 0 -- -- 51
2018-09-26 23:00:00 21.7 6 Sur 23 Sur 0 -- -- 54
2018-09-26 22:00:00 18.7 0 Calma 17 Sudoeste 0 -- -- 70
2018-09-26 21:00:00 19.5 2 Noroeste 15 Este 0 -- -- 64
2018-09-26 20:00:00 23.5 4 Sur 23 Sur 0 -- -- 43
2018-09-26 19:00:00 25.6 10 Sur 25 Sur 0 -- -- 38
2018-09-26 18:00:00 26.6 10 Sur 35 Sur 0 -- -- 37
2018-09-26 17:00:00 27.8 13 Sur 31 Sur 0 -- -- 35
2018-09-26 16:00:00 28.4 10 Sudeste 48 Sudeste 0 -- -- 36
2018-09-26 15:00:00 27.5 12 Sur 44 Sur 0 -- -- 35
2018-09-26 14:00:00 26.6 12 Sur 43 Sudeste 0 -- -- 36
2018-09-26 13:00:00 25.2 14 Sur 32 Sudoeste 0 -- -- 39
2018-09-26 12:00:00 24.1 9 Sur 23 Sudoeste 0 -- -- 43
2018-09-26 11:00:00 20.6 3 Sur 14 Sudeste 0 -- -- 56
2018-09-26 10:00:00 14 0 Calma 8 Nordeste 0 -- -- 92
2018-09-26 09:00:00 9.7 0 Calma 11 Sudoeste 0 -- -- 97
2018-09-26 08:00:00 7.9 0 Calma 7 Este 0 -- -- 97
2018-09-26 07:00:00 8 0 Calma 8 Sudoeste 0 -- -- 97
2018-09-26 06:00:00 8.3 0 Calma 9 Sur 0 -- -- 97
2018-09-26 05:00:00 8.4 0 Calma 5 Nordeste 0 -- -- 97
2018-09-26 04:00:00 8.2 0 Calma 4 Norte 0 -- -- 96
2018-09-26 03:00:00 8.4 0 Calma 4 Sudoeste 0 -- -- 96
2018-09-26 02:00:00 8.8 0 Calma 3 Sudeste 0 -- -- 95
2018-09-26 01:00:00 9.2 0 Calma 0 Calma 0 -- -- 95
2018-09-26 00:00:00 9.9 0 Calma 0 Calma 0 -- -- 93
2018-09-25 23:00:00 10.7 0 Calma 4 Noroeste 0 -- -- 92
2018-09-25 22:00:00 11.7 0 Calma 4 Noroeste 0 -- -- 89
2018-09-25 21:00:00 13.3 0 Calma 4 Sudoeste 0 -- -- 83
2018-09-25 20:00:00 15 0 Calma 13 Nordeste 0 -- -- 73
2018-09-25 19:00:00 17.9 2 Nordeste 12 Nordeste 0 -- -- 53
2018-09-25 18:00:00 18.7 5 Nordeste 18 Nordeste 0 -- -- 49
2018-09-25 17:00:00 20 3 Nordeste 17 Norte 0 -- -- 47
2018-09-25 16:00:00 20.2 5 Nordeste 18 Sudeste 0 -- -- 45
2018-09-25 15:00:00 20.9 4 Este 15 Este 0 -- -- 44
2018-09-25 14:00:00 19.4 3 Este 9 Este 0 -- -- 46
2018-09-25 13:00:00 18.2 2 Sur 9 Sudoeste 0 -- -- 52
2018-09-25 12:00:00 14.6 2 Este 5 Sudeste 0 -- -- 67
2018-09-25 11:00:00 10 2 Norte 8 Noroeste 0 -- -- 93
2018-09-25 10:00:00 7.8 0 Calma 5 Nordeste 0 -- -- 98
2018-09-25 09:00:00 7.4 0 Calma 5 Nordeste 0 -- -- 98
2018-09-25 08:00:00 7.5 0 Calma 5 Nordeste 0 -- -- 98
2018-09-25 07:00:00 7.9 0 Calma 5 Noroeste 0 -- -- 98
2018-09-25 06:00:00 8 0 Calma 2 Sudoeste 0 -- -- 98
2018-09-25 05:00:00 8.2 0 Calma 3 Noroeste 0 -- -- 98
2018-09-25 04:00:00 8.2 0 Calma 5 Noroeste 0 -- -- 98
2018-09-25 03:00:00 7.7 0 Calma 0 Calma 0 -- -- 96
2018-09-25 02:00:00 7.9 0 Calma 2 Noroeste 0 -- -- 95
2018-09-25 01:00:00 8.6 0 Calma 2 Sudoeste 0 -- -- 95
2018-09-25 00:00:00 9.2 0 Calma 3 Sudoeste 0 -- -- 93
2018-09-24 23:00:00 10.3 0 Calma 3 Noroeste 0 -- -- 92
2018-09-24 22:00:00 11.5 0 Calma 5 Sudoeste 0 -- -- 88
2018-09-24 21:00:00 13 0 Calma 7 Noroeste 0 -- -- 82
2018-09-24 20:00:00 14 3 Norte 18 Noroeste 0 -- -- 68
2018-09-24 19:00:00 14.9 5 Noroeste 15 Noroeste 0 -- -- 58
2018-09-24 18:00:00 16.4 6 Noroeste 21 Noroeste 0 -- -- 53
2018-09-24 17:00:00 17.9 9 Noroeste 23 Nordeste 0 -- -- 53
2018-09-24 16:00:00 18.2 6 Noroeste 23 Noroeste 0 -- -- 54
2018-09-24 15:00:00 18.1 10 Norte 20 Nordeste 0 -- -- 58
2018-09-24 14:00:00 18 8 Norte 18 Noroeste 0 -- -- 58
2018-09-24 13:00:00 17.5 5 Noroeste 15 Nordeste 0 -- -- 61
2018-09-24 12:00:00 16.3 3 Norte 12 Norte 0 -- -- 74
2018-09-24 11:00:00 15.5 6 Norte 13 Norte 0 -- -- 84
2018-09-24 10:00:00 15.8 6 Norte 16 Norte 0 -- -- 82
2018-09-24 09:00:00 15.8 0 Calma 6 Noroeste 0.1 -- -- 94
2018-09-24 08:00:00 15.8 2 Noroeste 8 Nordeste 0.1 -- -- 92
2018-09-24 07:00:00 16.3 0 Calma 12 Norte 0.1 -- -- 93
2018-09-24 06:00:00 16.8 6 Norte 17 Noroeste 0.1 -- -- 89
2018-09-24 05:00:00 18 0 Calma 5 Noroeste 0.3 -- -- 94
2018-09-24 04:00:00 18.6 0 Calma 5 Oeste 0.1 -- -- 95
2018-09-24 03:00:00 18.6 2 Sudoeste 8 Sudoeste 1.3 -- -- 95
2018-09-24 02:00:00 19 0 Calma 0 Calma 0.7 -- -- 93
2018-09-24 01:00:00 18.9 0 Calma 0 Calma 0.1 -- -- 92
2018-09-24 00:00:00 19.3 0 Calma 3 Noroeste 0 -- -- 89
2018-09-23 23:00:00 19.7 0 Calma 5 Norte 0 -- -- 87
2018-09-23 22:00:00 20.2 0 Calma 4 Norte 0 -- -- 82
2018-09-23 21:00:00 20.6 3 Nordeste 7 Nordeste 0 -- -- 79
2018-09-23 20:00:00 21 0 Calma 6 Este 0 -- -- 77
2018-09-23 19:00:00 22.1 0 Calma 24 Norte 0 -- -- 73
2018-09-23 18:00:00 22.8 15 Norte 28 Norte 0 -- -- 69
2018-09-23 17:00:00 25.5 12 Norte 27 Noroeste 0 -- -- 56
2018-09-23 16:00:00 29.1 11 Norte 22 Norte 0 -- -- 43
2018-09-23 15:00:00 29.9 2 Oeste 9 Norte 0 -- -- 38
2018-09-23 14:00:00 28.4 3 Sudoeste 7 Sur 0 -- -- 42
2018-09-23 13:00:00 25.8 2 Norte 5 Oeste 0 -- -- 49
2018-09-23 12:00:00 22.2 0 Calma 6 Norte 0 -- -- 65
2018-09-23 11:00:00 17.2 0 Calma 5 Nordeste 0 -- -- 88
2018-09-23 10:00:00 14.5 0 Calma 4 Nordeste 0 -- -- 97
2018-09-23 09:00:00 14.3 0 Calma 3 Nordeste 0 -- -- 97
2018-09-23 08:00:00 13.9 0 Calma 2 Norte 0 -- -- 97
2018-09-23 07:00:00 13.8 0 Calma -- -- 0 -- -- 97
2018-09-23 06:00:00 13.5 0 Calma 0 Calma 0 -- -- 97
2018-09-23 05:00:00 13.4 0 Calma 0 Calma 0 -- -- 96
2018-09-23 04:00:00 13.7 0 Calma 2 Sudoeste 0 -- -- 96
2018-09-23 03:00:00 14 0 Calma 0 Calma 0 -- -- 95
2018-09-23 02:00:00 14.5 0 Calma 2 Sur 0 -- -- 95
2018-09-23 01:00:00 15.1 0 Calma 2 Sudoeste 0 -- -- 94
2018-09-23 00:00:00 15.9 0 Calma 2 Sudoeste 0 -- -- 92
2018-09-22 23:00:00 16.8 0 Calma 4 Sudoeste 0 -- -- 91
2018-09-22 22:00:00 18.2 0 Calma 3 Noroeste 0 -- -- 87
2018-09-22 21:00:00 20.2 0 Calma 4 Oeste 0 -- -- 78
2018-09-22 20:00:00 23.1 0 Calma 10 Nordeste 0 -- -- 65
2018-09-22 19:00:00 25.7 7 Norte 14 Norte 0 -- -- 51
2018-09-22 18:00:00 27.1 8 Norte 20 Norte 0 -- -- 47
2018-09-22 17:00:00 28.5 10 Norte 18 Noroeste 0 -- -- 43
2018-09-22 16:00:00 29.8 5 Noroeste 16 Oeste 0 -- -- 37
2018-09-22 15:00:00 29.5 3 Noroeste 9 Noroeste 0 -- -- 39
2018-09-22 14:00:00 28 0 Calma 9 Sur 0 -- -- 45
2018-09-22 13:00:00 25.8 3 Sudeste 7 Sur 0 -- -- 55
2018-09-22 12:00:00 23.2 0 Calma 6 Nordeste 0 -- -- 61
2018-09-22 11:00:00 20.4 0 Calma 10 Norte 0 -- -- 73
2018-09-22 10:00:00 18.9 0 Calma 4 Nordeste 0 -- -- 81
2018-09-22 09:00:00 18 0 Calma 4 Sudoeste 0 -- -- 93
2018-09-22 08:00:00 17.6 0 Calma 4 Sudoeste 0 -- -- 95
2018-09-22 07:00:00 17.5 2 Sur 4 Noroeste 0 -- -- 95
2018-09-22 06:00:00 17.4 0 Calma 3 Sur 0 -- -- 95
2018-09-22 05:00:00 17.4 0 Calma 3 Sur 0 -- -- 95
2018-09-22 04:00:00 17.3 0 Calma 3 Noroeste 0 -- -- 95
2018-09-22 03:00:00 17.1 0 Calma 5 Sur 0 -- -- 95
2018-09-22 02:00:00 17.1 0 Calma 3 Sur 0 -- -- 93
2018-09-22 01:00:00 17.5 0 Calma 2 Sudoeste 0 -- -- 92
2018-09-22 00:00:00 18 0 Calma 3 Norte 0 -- -- 91
2018-09-21 23:00:00 18.6 0 Calma 2 Sudeste 0 -- -- 89
2018-09-21 22:00:00 18.6 0 Calma 6 Noroeste 0 -- -- 89
2018-09-21 21:00:00 18.6 0 Calma 7 Sur 0 -- -- 87
2018-09-21 20:00:00 19 2 Norte -- -- 0 -- -- 82
2018-09-21 19:00:00 20.8 8 Norte 15 Norte 0 -- -- 68
2018-09-21 18:00:00 22.7 5 Norte 20 Norte 0 -- -- 58
2018-09-21 17:00:00 24.4 10 Norte 25 Norte 0 -- -- 47
2018-09-21 16:00:00 25.7 8 Norte 21 Norte 0 -- -- 44
2018-09-21 15:00:00 26.3 5 Norte 14 Norte 0 -- -- 44
2018-09-21 14:00:00 25.5 2 Norte 13 Norte 0 -- -- 45
2018-09-21 13:00:00 24.9 3 Norte 13 Norte 0 -- -- 46
2018-09-21 12:00:00 24.1 3 Sur 8 Sur 0 -- -- 63
2018-09-21 11:00:00 22.3 0 Calma 8 Sur 0 -- -- 77
2018-09-21 10:00:00 20.1 0 Calma 6 Noroeste 0 -- -- 88
2018-09-21 09:00:00 19.3 2 Sudoeste 8 Sudoeste 0 -- -- 86
2018-09-21 08:00:00 19.4 0 Calma 5 Noroeste 0 -- -- 94
2018-09-21 07:00:00 19.4 0 Calma 5 Sur 0 -- -- 95
2018-09-21 06:00:00 19.7 0 Calma 8 Noroeste 0 -- -- 95
2018-09-21 05:00:00 19.7 2 Sur 4 Sur 0 -- -- 95
2018-09-21 04:00:00 19.6 0 Calma 3 Noroeste 0 -- -- 94
2018-09-21 03:00:00 19.9 0 Calma 3 Noroeste 0 -- -- 94
2018-09-21 02:00:00 20 0 Calma 3 Noroeste 0 -- -- 93
2018-09-21 01:00:00 20.2 0 Calma 4 Sur 0 -- -- 90
2018-09-21 00:00:00 20.6 0 Calma 8 Este 0 -- -- 87
2018-09-20 23:00:00 20.5 0 Calma 9 Sudeste 0 -- -- 87
2018-09-20 22:00:00 20.5 0 Calma 10 Nordeste 0 -- -- 82
2018-09-20 21:00:00 22.1 0 Calma 6 Sudeste 0 -- -- 79
2018-09-20 20:00:00 23.9 3 Sudoeste 8 Sur 0 -- -- 65
2018-09-20 19:00:00 27.2 2 Oeste 12 Nordeste 0 -- -- 51
2018-09-20 18:00:00 29.6 0 Calma 6 Norte 0 -- -- 41
2018-09-20 17:00:00 33 2 Nordeste 11 Noroeste 0 -- -- 33
2018-09-20 16:00:00 33.1 2 Oeste 14 Noroeste 0 -- -- 34
2018-09-20 15:00:00 32 0 Calma 7 Sudoeste 0 -- -- 37
2018-09-20 14:00:00 29.5 2 Norte 7 Noroeste 0 -- -- 43
2018-09-20 13:00:00 27.8 0 Calma 6 Nordeste 0 -- -- 52
2018-09-20 12:00:00 24.3 0 Calma 6 Sudeste 0 -- -- 61
2018-09-20 11:00:00 20.5 0 Calma 5 Este 0 -- -- 77
2018-09-20 10:00:00 17.9 0 Calma 4 Nordeste 0 -- -- 89
2018-09-20 09:00:00 16.6 0 Calma 0 Calma 0 -- -- 92
2018-09-20 08:00:00 16.5 0 Calma 7 Nordeste 0 -- -- 89
2018-09-20 07:00:00 18 0 Calma 4 Este 0 -- -- 87
2018-09-20 06:00:00 18.6 0 Calma 4 Nordeste 0 -- -- 86
2018-09-20 05:00:00 18.8 0 Calma 0 Calma 0 -- -- 90
2018-09-20 04:00:00 18.8 0 Calma 0 Calma 0 -- -- 92
2018-09-20 03:00:00 19 0 Calma 3 Noroeste 0 -- -- 92
2018-09-20 02:00:00 19.1 0 Calma 0 Calma 0 -- -- 92
2018-09-20 01:00:00 18.9 0 Calma 2 Norte 0 -- -- 92
2018-09-20 00:00:00 18.6 0 Calma 3 Noroeste 0 -- -- 92